Time;durP1;ratioP1;P1;durP2;ratioP2;P2;SDS_P1;SDS_P2;PMS_P1;PMS_P2;Temp;Humidity;BMP_temperature;BMP_pressure;BME280_temperature;BME280_humidity;BME280_pressure;Samples;Min_cycle;Max_cycle;Signal;HPM_P1;HPM_P2
2021/04/10 00:00:08;;;;;;;7.82;4.30;;;10.60;90.40;;;;;;4980007;28;20045;-82
2021/04/10 00:02:37;;;;;;;12.18;4.85;;;10.60;90.50;;;;;;4979417;28;20042;-83
2021/04/10 00:05:07;;;;;;;10.63;4.80;;;10.50;90.70;;;;;;4964963;28;20045;-82
2021/04/10 00:07:36;;;;;;;11.05;5.38;;;10.50;90.70;;;;;;4979842;28;20054;-82
2021/04/10 00:10:06;;;;;;;9.00;4.50;;;10.40;90.90;;;;;;4975307;28;20057;-82
2021/04/10 00:12:34;;;;;;;8.48;4.38;;;10.40;91.10;;;;;;4977430;28;20066;-82
2021/04/10 00:15:03;;;;;;;8.75;4.15;;;10.50;90.90;;;;;;4995053;28;20054;-82
2021/04/10 00:17:31;;;;;;;7.68;4.30;;;10.60;90.90;;;;;;4973690;28;20046;-82
2021/04/10 00:19:59;;;;;;;6.47;4.25;;;10.60;90.90;;;;;;4975325;28;20042;-82
2021/04/10 00:22:27;;;;;;;6.95;3.35;;;10.60;90.80;;;;;;4982291;28;20053;-82
2021/04/10 00:24:56;;;;;;;8.25;3.30;;;10.50;90.90;;;;;;4975207;28;20110;-82
2021/04/10 00:27:24;;;;;;;4.10;2.67;;;10.50;90.90;;;;;;4977636;28;20144;-82
2021/04/10 00:29:52;;;;;;;5.40;2.70;;;10.50;90.80;;;;;;4975668;28;20049;-83
2021/04/10 00:32:20;;;;;;;3.72;2.30;;;10.70;90.40;;;;;;4977318;28;20045;-82
2021/04/10 00:34:47;;;;;;;5.72;2.67;;;10.70;90.00;;;;;;4992184;28;20049;-82
2021/04/10 00:37:15;;;;;;;5.75;2.67;;;10.60;90.00;;;;;;4979995;28;20105;-82
2021/04/10 00:39:43;;;;;;;3.50;2.47;;;10.60;90.20;;;;;;4962160;28;20050;-82
2021/04/10 00:42:13;;;;;;;3.70;2.38;;;10.50;90.30;;;;;;4999807;28;20046;-82
2021/04/10 00:44:41;;;;;;;4.55;3.03;;;10.50;90.70;;;;;;4973931;28;20045;-82
2021/04/10 00:47:09;;;;;;;4.90;2.67;;;10.50;90.60;;;;;;4985749;28;20046;-82
2021/04/10 00:49:37;;;;;;;5.28;2.60;;;10.40;90.70;;;;;;4964743;28;20057;-82
2021/04/10 00:52:08;;;;;;;4.65;2.50;;;10.50;90.60;;;;;;4982765;28;20048;-82
2021/04/10 00:54:36;;;;;;;5.10;2.65;;;10.50;90.50;;;;;;4968385;28;20054;-82
2021/04/10 00:57:05;;;;;;;4.85;2.58;;;10.50;90.50;;;;;;4980638;28;20100;-81
2021/04/10 00:59:34;;;;;;;3.88;2.10;;;10.50;90.60;;;;;;4997943;28;20084;-81
2021/04/10 01:02:03;;;;;;;3.65;2.38;;;10.50;90.40;;;;;;4996742;28;20038;-81
2021/04/10 01:04:32;;;;;;;4.85;2.75;;;10.40;90.60;;;;;;4979597;28;20476;-82
2021/04/10 01:07:01;;;;;;;5.50;2.95;;;10.50;90.60;;;;;;4968326;28;20046;-82
2021/04/10 01:09:30;;;;;;;6.20;3.30;;;10.50;90.70;;;;;;4970449;28;20053;-82
2021/04/10 01:12:16;;;;;;;6.38;3.17;;;10.40;90.80;;;;;;4983971;28;20686;-81
2021/04/10 01:14:55;;;;;;;6.68;3.42;;;10.50;90.80;;;;;;4998663;28;20068;-81
2021/04/10 01:17:28;;;;;;;6.43;2.97;;;10.50;90.80;;;;;;4998413;28;20213;-81
2021/04/10 01:20:23;;;;;;;7.18;2.83;;;10.40;91.00;;;;;;4986018;28;20045;-81
2021/04/10 01:23:21;;;;;;;5.10;2.78;;;10.40;91.20;;;;;;4950232;28;20045;-82
2021/04/10 01:26:08;;;;;;;4.50;2.55;;;10.40;91.20;;;;;;4963500;28;20046;-81
2021/04/10 01:28:52;;;;;;;4.43;2.60;;;10.50;91.30;;;;;;4976776;28;20049;-82
2021/04/10 01:31:26;;;;;;;3.92;2.28;;;10.40;91.40;;;;;;4966681;28;20423;-83
2021/04/10 01:34:01;;;;;;;5.68;2.40;;;10.30;91.40;;;;;;4969360;28;20042;-80
2021/04/10 01:36:33;;;;;;;4.35;2.75;;;10.40;91.50;;;;;;4985585;23;20070;-82
2021/04/10 01:39:03;;;;;;;6.15;2.60;;;10.30;91.80;;;;;;5015433;23;20471;-78
2021/04/10 01:41:33;;;;;;;7.28;3.03;;;10.40;91.70;;;;;;4982018;28;20495;-79
2021/04/10 01:44:04;;;;;;;3.83;2.47;;;10.50;91.50;;;;;;4972182;28;20590;-78
2021/04/10 01:46:35;;;;;;;4.32;2.40;;;10.50;91.30;;;;;;4981138;28;20090;-78
2021/04/10 01:49:05;;;;;;;5.72;2.55;;;10.40;91.60;;;;;;4975604;28;20676;-78
2021/04/10 01:51:34;;;;;;;4.70;2.58;;;10.50;91.60;;;;;;4962163;28;20339;-78
2021/04/10 01:54:03;;;;;;;3.90;2.20;;;10.50;91.50;;;;;;4972058;28;20057;-78
2021/04/10 01:56:34;;;;;;;3.72;2.15;;;10.50;91.60;;;;;;4979384;28;20056;-78
2021/04/10 01:59:07;;;;;;;5.00;2.40;;;10.50;91.60;;;;;;4972105;28;20060;-78
2021/04/10 02:02:03;;;;;;;3.45;1.77;;;10.50;91.50;;;;;;4971681;28;20159;-78
2021/04/10 02:04:43;;;;;;;3.67;2.30;;;10.50;91.60;;;;;;4978663;28;20486;-79
2021/04/10 02:07:13;;;;;;;3.10;1.92;;;10.50;91.30;;;;;;4963840;28;20049;-79
2021/04/10 02:09:47;;;;;;;3.58;2.00;;;10.50;91.60;;;;;;4979952;28;20050;-78
2021/04/10 02:12:28;;;;;;;4.25;1.92;;;10.60;91.50;;;;;;4967101;28;20133;-78
2021/04/10 02:15:18;;;;;;;3.40;1.70;;;10.60;91.30;;;;;;4968793;28;20105;-79
2021/04/10 02:17:48;;;;;;;2.75;2.00;;;10.60;91.20;;;;;;5000529;28;20045;-82
2021/04/10 02:20:19;;;;;;;3.15;1.75;;;10.60;91.30;;;;;;4983951;28;20531;-81
2021/04/10 02:22:51;;;;;;;2.83;1.65;;;10.60;91.50;;;;;;4967415;28;20352;-81
2021/04/10 02:25:27;;;;;;;2.95;1.55;;;10.60;91.20;;;;;;4978927;28;20050;-81
2021/04/10 02:27:56;;;;;;;2.20;1.52;;;10.50;91.50;;;;;;4973832;28;20156;-82
2021/04/10 02:30:27;;;;;;;1.77;1.23;;;10.60;91.50;;;;;;4980955;28;20234;-81
2021/04/10 02:32:58;;;;;;;2.70;1.50;;;10.70;91.20;;;;;;4982113;28;20038;-81
2021/04/10 02:35:33;;;;;;;2.28;1.30;;;10.60;91.20;;;;;;4978576;28;20065;-81
2021/04/10 02:38:03;;;;;;;2.03;1.17;;;10.60;91.30;;;;;;4975461;28;20423;-82
2021/04/10 02:40:35;;;;;;;3.45;1.38;;;10.60;91.20;;;;;;4947534;28;20446;-81
2021/04/10 02:43:07;;;;;;;3.17;1.45;;;10.60;91.20;;;;;;4948574;28;20051;-81
2021/04/10 02:45:41;;;;;;;2.20;1.30;;;10.60;91.30;;;;;;4979714;28;20038;-81
2021/04/10 02:48:14;;;;;;;1.88;1.00;;;10.60;91.40;;;;;;4983675;28;20050;-80
2021/04/10 02:50:43;;;;;;;1.75;1.00;;;10.50;91.80;;;;;;4952683;28;20046;-81
2021/04/10 02:53:14;;;;;;;1.70;1.15;;;10.50;91.90;;;;;;4952687;28;20034;-81
2021/04/10 02:55:46;;;;;;;2.83;1.40;;;10.60;92.00;;;;;;4949590;28;20137;-80
2021/04/10 02:58:22;;;;;;;2.50;1.23;;;10.70;91.90;;;;;;4946405;28;20045;-80
2021/04/10 03:00:54;;;;;;;4.53;1.40;;;10.60;91.80;;;;;;4965696;28;20085;-81
2021/04/10 03:03:26;;;;;;;2.88;0.88;;;10.60;91.70;;;;;;4966944;28;20042;-80
2021/04/10 03:05:56;;;;;;;3.08;1.00;;;10.60;91.80;;;;;;4948148;28;20145;-81
2021/04/10 03:08:24;;;;;;;3.35;1.48;;;10.70;91.50;;;;;;4969054;28;20484;-80
2021/04/10 03:10:58;;;;;;;3.08;1.10;;;10.70;91.40;;;;;;4966129;28;20042;-80
2021/04/10 03:13:27;;;;;;;2.15;0.90;;;10.60;91.30;;;;;;4965039;28;20061;-80
2021/04/10 03:16:06;;;;;;;1.60;0.85;;;10.60;91.40;;;;;;4966772;28;20054;-80
2021/04/10 03:18:36;;;;;;;2.25;0.93;;;10.70;91.20;;;;;;4965740;28;20533;-80
2021/04/10 03:21:06;;;;;;;3.38;0.68;;;10.60;91.50;;;;;;4980042;28;20065;-80
2021/04/10 03:23:42;;;;;;;2.90;1.20;;;10.60;91.40;;;;;;4963337;28;20113;-80
2021/04/10 03:26:12;;;;;;;2.88;1.20;;;10.70;91.40;;;;;;4954328;28;20088;-81
2021/04/10 03:28:43;;;;;;;2.30;1.10;;;10.70;91.30;;;;;;4961934;28;20271;-81
2021/04/10 03:31:12;;;;;;;2.25;1.05;;;10.70;91.40;;;;;;4966293;28;20637;-81
2021/04/10 03:33:40;;;;;;;2.30;1.13;;;10.70;91.70;;;;;;4969457;28;20050;-81
2021/04/10 03:36:10;;;;;;;2.08;1.20;;;10.60;91.80;;;;;;4957914;28;20038;-81
2021/04/10 03:38:42;;;;;;;2.90;1.30;;;10.70;92.10;;;;;;4956907;28;20053;-80
2021/04/10 03:41:12;;;;;;;4.82;1.20;;;10.70;92.10;;;;;;4981056;28;20493;-81
2021/04/10 03:43:41;;;;;;;1.90;1.15;;;10.70;92.20;;;;;;4978999;28;20050;-81
2021/04/10 03:46:09;;;;;;;1.48;1.00;;;10.70;92.60;;;;;;4978589;28;20074;-82
2021/04/10 03:48:39;;;;;;;3.00;1.30;;;10.60;92.80;;;;;;4980258;28;20145;-81
2021/04/10 03:51:15;;;;;;;1.70;0.90;;;10.70;92.80;;;;;;4988976;28;20050;-81
2021/04/10 03:53:49;;;;;;;1.70;1.08;;;10.70;92.70;;;;;;4964881;28;20069;-82
2021/04/10 03:56:19;;;;;;;2.33;0.95;;;10.80;92.30;;;;;;4966656;28;20069;-82
2021/04/10 03:58:47;;;;;;;1.60;0.88;;;10.80;92.20;;;;;;4968718;28;20057;-82
2021/04/10 04:01:27;;;;;;;2.67;1.10;;;10.80;92.40;;;;;;4983579;28;20046;-81
2021/04/10 04:03:57;;;;;;;3.70;1.08;;;10.80;92.40;;;;;;4972569;28;20038;-80
2021/04/10 04:06:25;;;;;;;1.58;0.90;;;10.90;92.40;;;;;;4974208;28;20049;-82
2021/04/10 04:08:53;;;;;;;2.33;0.90;;;10.80;92.40;;;;;;4965247;28;20056;-82
2021/04/10 04:11:21;;;;;;;3.03;1.02;;;10.80;92.60;;;;;;4982856;28;20119;-81
2021/04/10 04:13:49;;;;;;;1.65;0.85;;;10.80;92.80;;;;;;4963950;28;20042;-81
2021/04/10 04:16:16;;;;;;;2.42;1.08;;;10.80;93.10;;;;;;4975588;28;20141;-81
2021/04/10 04:18:44;;;;;;;2.00;1.00;;;10.80;92.90;;;;;;4990056;28;20495;-80
2021/04/10 04:21:15;;;;;;;2.25;1.33;;;10.80;92.90;;;;;;4983804;28;20046;-81
2021/04/10 04:23:43;;;;;;;1.75;0.88;;;10.90;92.90;;;;;;4984053;28;20088;-81
2021/04/10 04:26:10;;;;;;;3.97;1.27;;;10.90;92.80;;;;;;4995192;28;20042;-81
2021/04/10 04:28:38;;;;;;;1.55;1.00;;;10.90;93.10;;;;;;4978438;28;20042;-81
2021/04/10 04:31:06;;;;;;;4.57;1.73;;;10.90;93.20;;;;;;4961971;28;20535;-81
2021/04/10 04:33:34;;;;;;;3.38;1.33;;;10.90;93.20;;;;;;4979874;28;20048;-81
2021/04/10 04:36:02;;;;;;;2.67;1.35;;;10.90;93.10;;;;;;4975161;28;20054;-81
2021/04/10 04:38:31;;;;;;;3.90;1.80;;;10.90;93.10;;;;;;5002373;28;20104;-82
2021/04/10 04:40:59;;;;;;;3.28;1.70;;;10.90;93.10;;;;;;4978840;28;20049;-82
2021/04/10 04:43:27;;;;;;;5.45;2.22;;;10.90;93.10;;;;;;4965563;28;20041;-81
2021/04/10 04:45:55;;;;;;;5.00;2.42;;;11.00;93.00;;;;;;4962996;28;20038;-80
2021/04/10 04:48:25;;;;;;;4.18;2.40;;;11.00;93.30;;;;;;4976178;28;20449;-81
2021/04/10 04:50:52;;;;;;;5.13;2.70;;;11.00;93.30;;;;;;4997078;28;20031;-81
2021/04/10 04:53:21;;;;;;;7.32;3.00;;;11.00;93.30;;;;;;4974643;28;20042;-81
2021/04/10 04:55:50;;;;;;;3.53;2.00;;;11.10;93.20;;;;;;4977059;28;20400;-80
2021/04/10 04:58:18;;;;;;;5.47;2.15;;;11.10;93.30;;;;;;4982667;28;20108;-80
2021/04/10 05:00:46;;;;;;;4.53;2.00;;;11.00;93.40;;;;;;4992270;28;20046;-80
2021/04/10 05:03:14;;;;;;;4.93;2.60;;;11.00;93.60;;;;;;4982771;28;20049;-80
2021/04/10 05:05:42;;;;;;;6.80;2.58;;;11.00;93.90;;;;;;4968480;28;20054;-80
2021/04/10 05:08:10;;;;;;;5.43;3.10;;;11.00;94.00;;;;;;4967237;28;20050;-80
2021/04/10 05:10:37;;;;;;;4.22;2.95;;;11.00;94.30;;;;;;4977383;28;20038;-81
2021/04/10 05:13:06;;;;;;;6.03;3.22;;;11.10;94.30;;;;;;4985938;28;20060;-81
2021/04/10 05:15:34;;;;;;;5.72;3.00;;;11.10;94.20;;;;;;4974235;28;20152;-81
2021/04/10 05:18:02;;;;;;;4.10;2.53;;;11.10;94.20;;;;;;4994732;28;20045;-81
2021/04/10 05:20:30;;;;;;;6.38;2.58;;;11.10;94.10;;;;;;4995403;28;20044;-81
2021/04/10 05:22:59;;;;;;;4.65;2.53;;;11.20;94.10;;;;;;4980927;28;20040;-81
2021/04/10 05:25:27;;;;;;;3.35;2.10;;;11.20;94.00;;;;;;4981606;28;20700;-81
2021/04/10 05:27:55;;;;;;;4.22;1.77;;;11.20;94.10;;;;;;4992287;28;20046;-81
2021/04/10 05:30:25;;;;;;;3.17;1.45;;;11.20;94.10;;;;;;4982221;28;20463;-81
2021/04/10 05:32:53;;;;;;;3.35;1.52;;;11.20;94.10;;;;;;4984740;28;20069;-80
2021/04/10 05:35:21;;;;;;;2.38;1.38;;;11.20;94.10;;;;;;4966655;28;20479;-81
2021/04/10 05:37:49;;;;;;;4.28;1.50;;;11.20;94.30;;;;;;4962293;28;20053;-80
2021/04/10 05:40:17;;;;;;;1.77;1.27;;;11.20;94.40;;;;;;4966729;28;20074;-81
2021/04/10 05:42:45;;;;;;;2.08;1.30;;;11.30;94.40;;;;;;4979818;28;20038;-81
2021/04/10 05:45:13;;;;;;;2.15;1.20;;;11.20;94.50;;;;;;4984099;28;20038;-81
2021/04/10 05:47:42;;;;;;;2.95;1.50;;;11.20;94.60;;;;;;4983896;28;20450;-81
2021/04/10 05:50:11;;;;;;;3.90;1.13;;;11.30;94.40;;;;;;4966246;28;20042;-81
2021/04/10 05:52:39;;;;;;;3.35;1.30;;;11.40;94.30;;;;;;4966390;28;20061;-81
2021/04/10 05:55:08;;;;;;;3.63;1.08;;;11.40;94.30;;;;;;4965886;28;20109;-81
2021/04/10 05:57:36;;;;;;;3.95;1.25;;;11.50;94.20;;;;;;4981535;28;20129;-81
2021/04/10 06:00:05;;;;;;;3.40;1.13;;;11.60;94.10;;;;;;4965078;28;20129;-81
2021/04/10 06:02:39;;;;;;;3.33;1.10;;;11.50;94.40;;;;;;4981787;28;20050;-80
2021/04/10 06:05:09;;;;;;;2.53;1.35;;;11.60;94.40;;;;;;4963365;28;20054;-80
2021/04/10 06:07:37;;;;;;;4.65;1.17;;;11.60;94.40;;;;;;4944885;28;20065;-81
2021/04/10 06:10:07;;;;;;;3.20;1.30;;;11.70;94.30;;;;;;4983618;28;20136;-80
2021/04/10 06:12:35;;;;;;;4.20;1.10;;;11.70;94.30;;;;;;4966247;28;20042;-81
2021/04/10 06:15:05;;;;;;;2.30;1.20;;;11.70;94.20;;;;;;4950964;28;20050;-81
2021/04/10 06:17:33;;;;;;;1.33;0.93;;;11.80;94.30;;;;;;4947590;28;20046;-81
2021/04/10 06:20:01;;;;;;;2.35;1.20;;;11.80;94.30;;;;;;4964252;28;20042;-81
2021/04/10 06:22:38;;;;;;;2.38;1.25;;;11.90;94.10;;;;;;4961793;28;20488;-80
2021/04/10 06:25:08;;;;;;;2.97;1.33;;;11.90;94.10;;;;;;4981875;28;20112;-80
2021/04/10 06:27:36;;;;;;;5.10;1.40;;;12.00;93.90;;;;;;4952606;28;20046;-81
2021/04/10 06:30:07;;;;;;;4.35;1.83;;;12.00;94.10;;;;;;4983367;28;20125;-81
2021/04/10 06:32:35;;;;;;;4.20;1.58;;;12.10;93.90;;;;;;4963883;28;20073;-81
2021/04/10 06:35:05;;;;;;;4.60;1.48;;;12.10;93.80;;;;;;4946011;28;20046;-82
2021/04/10 06:37:34;;;;;;;4.70;1.55;;;12.20;93.60;;;;;;4978306;28;20137;-81
2021/04/10 06:40:05;;;;;;;2.80;1.90;;;12.20;93.40;;;;;;4980487;28;20527;-81
2021/04/10 06:42:33;;;;;;;2.95;1.50;;;12.30;93.20;;;;;;4949735;28;20046;-81
2021/04/10 06:45:02;;;;;;;3.97;1.58;;;12.20;92.90;;;;;;4948545;28;20058;-81
2021/04/10 06:47:33;;;;;;;3.70;1.50;;;12.30;93.10;;;;;;4982129;28;20073;-81
2021/04/10 06:50:04;;;;;;;4.43;1.95;;;12.30;93.00;;;;;;4978386;28;20133;-81
2021/04/10 06:52:37;;;;;;;4.18;1.40;;;12.30;93.10;;;;;;4978935;28;20042;-81
2021/04/10 06:55:11;;;;;;;3.05;2.00;;;12.30;93.10;;;;;;4965516;28;20042;-81
2021/04/10 06:57:53;;;;;;;4.25;1.60;;;12.40;93.20;;;;;;4962875;28;20043;-83
2021/04/10 07:00:22;;;;;;;4.78;1.40;;;12.40;93.40;;;;;;4945885;28;20444;-82
2021/04/10 07:02:50;;;;;;;4.95;1.50;;;12.50;93.20;;;;;;4966601;28;20128;-81
2021/04/10 07:05:21;;;;;;;2.25;1.27;;;12.50;93.00;;;;;;4963301;28;20058;-84
2021/04/10 07:07:49;;;;;;;5.28;1.55;;;12.50;92.80;;;;;;4961447;28;20117;-84
2021/04/10 07:10:19;;;;;;;3.00;1.50;;;12.50;92.90;;;;;;4959996;28;20054;-82
2021/04/10 07:12:47;;;;;;;4.10;1.30;;;12.60;92.90;;;;;;4984896;28;20128;-83
2021/04/10 07:15:17;;;;;;;2.97;1.20;;;12.70;92.60;;;;;;4987613;28;20042;-83
2021/04/10 07:18:02;;;;;;;2.33;1.10;;;12.70;92.10;;;;;;4967609;28;20073;-80
2021/04/10 07:20:33;;;;;;;3.95;1.40;;;12.80;91.60;;;;;;4946388;28;20244;-82
2021/04/10 07:23:08;;;;;;;3.00;1.20;;;12.90;91.40;;;;;;4967515;28;20547;-83
2021/04/10 07:25:38;;;;;;;2.35;1.40;;;13.00;91.60;;;;;;4965554;28;20050;-80
2021/04/10 07:28:23;;;;;;;3.33;1.40;;;13.10;91.50;;;;;;4978699;28;20053;-80
2021/04/10 07:30:58;;;;;;;3.45;1.75;;;13.20;91.30;;;;;;4964647;28;20042;-82
2021/04/10 07:33:28;;;;;;;6.15;1.90;;;13.30;91.10;;;;;;4965214;28;20036;-82
2021/04/10 07:35:56;;;;;;;2.78;1.50;;;13.50;91.20;;;;;;4975019;28;20043;-83
2021/04/10 07:38:32;;;;;;;1.80;1.40;;;13.50;91.10;;;;;;4969248;28;20054;-84
2021/04/10 07:41:03;;;;;;;3.30;1.48;;;13.60;90.90;;;;;;4958956;28;20115;-82
2021/04/10 07:43:36;;;;;;;4.28;1.52;;;13.70;90.80;;;;;;4964938;28;20148;-85
2021/04/10 07:46:20;;;;;;;4.65;2.17;;;13.80;90.20;;;;;;4976819;28;20054;-84
2021/04/10 07:49:06;;;;;;;3.05;1.67;;;13.90;90.20;;;;;;4993385;28;20292;-81
2021/04/10 07:51:36;;;;;;;5.27;1.70;;;13.90;90.10;;;;;;4979753;28;21172;-82
2021/04/10 07:54:25;;;;;;;6.00;1.73;;;13.90;90.30;;;;;;4967292;28;20503;-82
2021/04/10 07:56:56;;;;;;;5.45;1.90;;;13.90;90.60;;;;;;4996310;28;20040;-82
2021/04/10 07:59:26;;;;;;;4.40;1.58;;;13.80;90.40;;;;;;4975194;28;20062;-83
2021/04/10 08:02:07;;;;;;;4.30;1.80;;;13.80;90.80;;;;;;4984344;28;20671;-81
2021/04/10 08:04:37;;;;;;;3.13;1.52;;;13.80;90.80;;;;;;4978280;28;20050;-84
2021/04/10 08:07:06;;;;;;;6.13;1.38;;;13.70;90.90;;;;;;4978172;28;20054;-84
2021/04/10 08:09:37;;;;;;;6.03;2.00;;;13.70;90.80;;;;;;4976162;28;20045;-84
2021/04/10 08:12:11;;;;;;;5.18;1.73;;;13.60;91.30;;;;;;4966550;28;20042;-86
2021/04/10 08:14:41;;;;;;;5.80;2.05;;;13.50;91.70;;;;;;4980840;28;20122;-84
2021/04/10 08:17:09;;;;;;;7.53;2.80;;;13.60;91.80;;;;;;4977052;28;20120;-82
2021/04/10 08:19:38;;;;;;;4.35;2.60;;;13.60;91.90;;;;;;4983728;28;20519;-86
2021/04/10 08:22:09;;;;;;;6.97;2.60;;;13.60;91.90;;;;;;4998543;28;20065;-81
2021/04/10 08:24:41;;;;;;;5.35;2.15;;;13.70;92.30;;;;;;4965847;28;20069;-83
2021/04/10 08:27:13;;;;;;;4.15;1.92;;;13.90;92.40;;;;;;4992715;28;20141;-82
2021/04/10 08:29:44;;;;;;;5.30;2.17;;;13.90;92.20;;;;;;4998075;28;20046;-83
2021/04/10 08:32:13;;;;;;;7.38;2.28;;;14.00;92.10;;;;;;4982880;28;20045;-83
2021/04/10 08:34:42;;;;;;;6.00;2.58;;;14.20;92.30;;;;;;4978643;28;20052;-82
2021/04/10 08:37:13;;;;;;;5.35;2.08;;;14.30;92.10;;;;;;5000629;28;20046;-84
2021/04/10 08:39:45;;;;;;;4.93;2.33;;;14.40;91.90;;;;;;4995887;28;20118;-82
2021/04/10 08:42:17;;;;;;;8.20;2.35;;;14.40;91.80;;;;;;4985853;28;20056;-83
2021/04/10 08:44:46;;;;;;;3.67;2.17;;;14.50;91.50;;;;;;4979012;28;20424;-83
2021/04/10 08:47:17;;;;;;;4.70;2.05;;;14.50;91.40;;;;;;4997946;28;20038;-83
2021/04/10 08:49:48;;;;;;;3.72;1.95;;;14.50;91.30;;;;;;4979546;28;20054;-84
2021/04/10 08:52:21;;;;;;;5.10;2.38;;;14.40;91.40;;;;;;4976015;28;20105;-83
2021/04/10 08:54:51;;;;;;;7.10;2.70;;;14.40;91.40;;;;;;4993683;28;20418;-81
2021/04/10 08:57:21;;;;;;;4.32;2.80;;;14.40;91.60;;;;;;4988833;28;20447;-82
2021/04/10 08:59:50;;;;;;;7.93;3.17;;;14.40;91.80;;;;;;4994059;28;20143;-81
2021/04/10 09:02:19;;;;;;;6.00;2.63;;;14.40;92.20;;;;;;4979310;28;20042;-79
2021/04/10 09:05:04;;;;;;;7.15;2.65;;;14.40;92.50;;;;;;4974499;28;20070;-79
2021/04/10 09:08:05;;;;;;;4.32;2.20;;;14.40;92.90;;;;;;4991070;28;20042;-81
2021/04/10 09:10:47;;;;;;;6.40;2.28;;;14.30;93.10;;;;;;4978498;28;20054;-81
2021/04/10 09:13:45;;;;;;;8.02;3.08;;;14.30;93.20;;;;;;4976381;28;20056;-80
2021/04/10 09:16:48;;;;;;;7.85;2.22;;;14.30;93.60;;;;;;4978416;28;20046;-81
2021/04/10 09:19:18;;;;;;;5.28;2.20;;;14.40;93.90;;;;;;4978223;28;20517;-83
2021/04/10 09:21:49;;;;;;;5.28;1.90;;;14.60;93.90;;;;;;4990052;28;20463;-81
2021/04/10 09:24:19;;;;;;;3.58;1.50;;;14.70;93.60;;;;;;4979520;28;20128;-82
2021/04/10 09:26:58;;;;;;;3.53;1.70;;;14.80;93.40;;;;;;4980196;28;20317;-82
2021/04/10 09:29:28;;;;;;;5.18;1.70;;;14.80;93.50;;;;;;4995629;28;20042;-81
2021/04/10 09:31:58;;;;;;;5.47;1.58;;;14.90;93.20;;;;;;4996632;28;20088;-83
2021/04/10 09:34:49;;;;;;;5.43;2.00;;;14.90;93.30;;;;;;4962214;28;20076;-83
2021/04/10 09:38:00;;;;;;;4.85;1.65;;;15.00;93.40;;;;;;4983278;28;20049;-84
2021/04/10 09:40:52;;;;;;;3.53;1.73;;;15.00;93.30;;;;;;4991094;28;20084;-80
2021/04/10 09:43:23;;;;;;;4.13;1.63;;;15.00;93.10;;;;;;4968786;28;20042;-82
2021/04/10 09:45:52;;;;;;;3.55;1.63;;;15.00;93.30;;;;;;4973858;28;20515;-83
2021/04/10 09:48:25;;;;;;;5.57;2.00;;;15.10;93.30;;;;;;4975643;28;20105;-83
2021/04/10 09:51:14;;;;;;;4.47;1.70;;;15.10;93.10;;;;;;4992184;28;20046;-82
2021/04/10 09:53:49;;;;;;;2.40;1.40;;;15.00;93.00;;;;;;4975973;28;20085;-82
2021/04/10 09:56:19;;;;;;;5.13;2.20;;;15.10;93.20;;;;;;4993368;28;20065;-81
2021/04/10 09:58:49;;;;;;;4.45;2.17;;;15.10;93.30;;;;;;4963248;28;20573;-83
2021/04/10 10:01:27;;;;;;;4.22;1.77;;;15.00;93.00;;;;;;4977163;28;20038;-83
2021/04/10 10:03:56;;;;;;;6.40;2.17;;;15.00;93.30;;;;;;4995200;28;20049;-82
2021/04/10 10:06:38;;;;;;;6.50;2.50;;;15.00;93.50;;;;;;4995549;28;20045;-81
2021/04/10 10:09:26;;;;;;;6.43;2.83;;;15.00;93.80;;;;;;4972826;28;20213;-81
2021/04/10 10:11:55;;;;;;;12.07;2.38;;;15.20;93.50;;;;;;4980368;28;20676;-78
2021/04/10 10:14:24;;;;;;;4.20;2.13;;;15.40;93.30;;;;;;4956624;28;20050;-76
2021/04/10 10:16:54;;;;;;;5.85;2.22;;;15.50;92.80;;;;;;4971747;28;20112;-77
2021/04/10 10:19:22;;;;;;;7.43;2.83;;;15.70;92.60;;;;;;4988146;28;20057;-77
2021/04/10 10:21:50;;;;;;;7.45;3.50;;;15.60;92.70;;;;;;4989089;28;20045;-77
2021/04/10 10:24:22;;;;;;;6.45;2.90;;;15.60;92.80;;;;;;4961549;28;20141;-77
2021/04/10 10:26:51;;;;;;;4.82;2.40;;;15.50;92.80;;;;;;4976093;28;20038;-79
2021/04/10 10:29:19;;;;;;;7.72;2.22;;;15.40;93.20;;;;;;4965304;28;20046;-77
2021/04/10 10:31:49;;;;;;;7.38;2.60;;;15.30;93.60;;;;;;4973955;28;20088;-78
2021/04/10 10:34:22;;;;;;;5.93;2.38;;;15.20;93.90;;;;;;4937737;28;20054;-77
2021/04/10 10:36:51;;;;;;;3.78;1.90;;;15.20;93.80;;;;;;4959370;28;20566;-77
2021/04/10 10:39:28;;;;;;;7.47;2.08;;;15.10;94.00;;;;;;4962030;28;20131;-80
2021/04/10 10:41:56;;;;;;;4.88;2.08;;;15.20;94.30;;;;;;4945705;28;20444;-78
2021/04/10 10:44:24;;;;;;;6.65;2.22;;;15.20;94.30;;;;;;4944366;28;21553;-76
2021/04/10 10:46:59;;;;;;;5.47;1.58;;;15.30;94.30;;;;;;4943884;28;20064;-79
2021/04/10 10:49:28;;;;;;;2.55;1.10;;;15.40;94.10;;;;;;4959466;28;20042;-76
2021/04/10 10:51:56;;;;;;;6.63;2.63;;;15.30;94.20;;;;;;4959156;28;20073;-76
2021/04/10 10:54:32;;;;;;;5.43;1.63;;;15.30;94.10;;;;;;4941616;28;20046;-75
2021/04/10 10:57:06;;;;;;;5.55;1.42;;;15.30;94.10;;;;;;4928735;28;20329;-76
2021/04/10 10:59:55;;;;;;;5.03;1.50;;;15.30;94.20;;;;;;4930153;28;20052;-76
2021/04/10 11:02:24;;;;;;;5.07;1.80;;;15.20;94.30;;;;;;4957875;28;20988;-75
2021/04/10 11:04:54;;;;;;;2.97;1.20;;;15.10;94.50;;;;;;4959544;28;21558;-76
2021/04/10 11:07:25;;;;;;;3.35;1.42;;;15.00;95.00;;;;;;4939963;28;20042;-76
2021/04/10 11:09:53;;;;;;;5.85;1.70;;;14.90;95.10;;;;;;4944361;28;20042;-76
2021/04/10 11:12:23;;;;;;;5.18;2.25;;;14.90;95.50;;;;;;4932903;28;20038;-78
2021/04/10 11:14:57;;;;;;;6.78;2.53;;;14.90;95.60;;;;;;4942317;28;20479;-77
2021/04/10 11:17:32;;;;;;;6.60;2.45;;;14.90;95.60;;;;;;4941418;28;20058;-76
2021/04/10 11:20:03;;;;;;;8.75;2.72;;;14.90;95.60;;;;;;4948547;28;20107;-77
2021/04/10 11:22:30;;;;;;;5.55;3.00;;;14.90;95.60;;;;;;4958092;28;20041;-78
2021/04/10 11:25:00;;;;;;;6.72;2.35;;;14.80;96.10;;;;;;4943782;28;20518;-77
2021/04/10 11:27:35;;;;;;;6.35;2.47;;;14.80;96.00;;;;;;4929909;28;20054;-80
2021/04/10 11:30:09;;;;;;;4.97;2.35;;;14.80;96.20;;;;;;4959789;28;20128;-79
2021/04/10 11:32:40;;;;;;;4.32;2.20;;;14.80;96.10;;;;;;4941470;28;20050;-77
2021/04/10 11:35:14;;;;;;;5.15;2.15;;;14.80;96.50;;;;;;4933550;28;20092;-77
2021/04/10 11:37:48;;;;;;;6.07;2.33;;;14.80;96.70;;;;;;4940479;28;21194;-77
2021/04/10 11:40:24;;;;;;;5.00;2.05;;;14.80;96.70;;;;;;4920286;28;20062;-77
2021/04/10 11:42:54;;;;;;;5.15;2.42;;;14.80;96.70;;;;;;4930033;28;20132;-77
2021/04/10 11:45:31;;;;;;;5.72;2.25;;;14.90;96.70;;;;;;4926485;28;20043;-77
2021/04/10 11:48:12;;;;;;;3.83;1.85;;;15.00;96.70;;;;;;4932114;28;20679;-79
2021/04/10 11:50:44;;;;;;;4.50;2.15;;;15.30;96.70;;;;;;4930797;28;20042;-78
2021/04/10 11:53:13;;;;;;;4.03;1.50;;;15.40;96.70;;;;;;4946845;28;20073;-79
2021/04/10 11:55:41;;;;;;;4.78;3.17;;;15.40;95.70;;;;;;4931218;28;20094;-78
2021/04/10 11:58:09;;;;;;;5.05;2.60;;;15.30;96.00;;;;;;4945013;28;20046;-80
2021/04/10 12:00:37;;;;;;;7.30;1.83;;;15.20;95.60;;;;;;4947150;28;20125;-79
2021/04/10 12:03:07;;;;;;;5.20;2.40;;;15.00;95.70;;;;;;4949595;28;20039;-78
2021/04/10 12:05:40;;;;;;;6.85;2.50;;;14.90;95.80;;;;;;4966812;28;20081;-78
2021/04/10 12:08:12;;;;;;;3.20;1.90;;;14.90;96.20;;;;;;4951017;28;20444;-77
2021/04/10 12:10:48;;;;;;;5.63;2.13;;;14.90;96.50;;;;;;4945997;28;20077;-78
2021/04/10 12:13:17;;;;;;;6.60;2.65;;;14.90;96.70;;;;;;4982618;28;20044;-78
2021/04/10 12:15:50;;;;;;;8.35;2.72;;;14.90;96.70;;;;;;4978485;28;20085;-78
2021/04/10 12:18:19;;;;;;;8.00;2.47;;;14.80;96.70;;;;;;4965060;28;20039;-80
2021/04/10 12:20:47;;;;;;;8.25;2.75;;;14.80;96.70;;;;;;4960926;28;20043;-79
2021/04/10 12:23:18;;;;;;;7.60;2.70;;;14.80;96.70;;;;;;4964128;28;20043;-79
2021/04/10 12:25:46;;;;;;;7.82;2.38;;;14.70;96.70;;;;;;4976716;28;20503;-80
2021/04/10 12:28:16;;;;;;;6.80;2.70;;;14.70;96.70;;;;;;4956247;28;20034;-82
2021/04/10 12:30:45;;;;;;;6.28;2.42;;;14.70;96.70;;;;;;4951593;28;20070;-82
2021/04/10 12:33:17;;;;;;;6.50;2.05;;;14.70;96.70;;;;;;4964232;28;20496;-82
2021/04/10 12:35:45;;;;;;;5.50;2.08;;;14.60;96.70;;;;;;4966609;28;20094;-83
2021/04/10 12:38:13;;;;;;;3.45;2.00;;;14.60;96.70;;;;;;4971642;28;20137;-79
2021/04/10 12:40:41;;;;;;;3.63;2.33;;;14.60;96.70;;;;;;4964037;28;20053;-79
2021/04/10 12:43:12;;;;;;;5.85;2.10;;;14.50;96.70;;;;;;4998453;28;20452;-79
2021/04/10 12:45:43;;;;;;;4.00;2.22;;;14.40;96.70;;;;;;4982046;28;20050;-79
2021/04/10 12:48:10;;;;;;;3.15;2.30;;;14.40;96.70;;;;;;4974644;28;20586;-78
2021/04/10 12:50:38;;;;;;;4.93;2.72;;;14.40;96.70;;;;;;4993184;28;20045;-76
2021/04/10 12:53:07;;;;;;;4.15;2.70;;;14.40;96.70;;;;;;4978134;28;20038;-78
2021/04/10 12:55:36;;;;;;;4.38;2.70;;;14.40;96.70;;;;;;4969016;28;20141;-76
2021/04/10 12:58:05;;;;;;;13.18;8.55;;;14.40;96.70;;;;;;4970145;28;20041;-81
2021/04/10 13:00:42;;;;;;;7.00;3.63;;;14.40;96.70;;;;;;4972993;28;20103;-86
2021/04/10 13:03:10;;;;;;;5.40;2.92;;;14.30;96.70;;;;;;4968929;28;20050;-83
2021/04/10 13:05:38;;;;;;;6.25;2.63;;;14.20;96.70;;;;;;4969017;28;20519;-81
2021/04/10 13:08:07;;;;;;;6.00;2.50;;;14.00;96.70;;;;;;4967506;28;20142;-81